Time;durP1;ratioP1;P1;durP2;ratioP2;P2;SDS_P1;SDS_P2;PMS_P1;PMS_P2;Temp;Humidity;BMP_temperature;BMP_pressure;BME280_temperature;BME280_humidity;BME280_pressure;Samples;Min_cycle;Max_cycle;Signal;HPM_P1;HPM_P2
2021/07/02 00:01:03;;;;;;;;;;;15.70;90.40;;;;;;4300272;33;41510;-84
2021/07/02 00:03:30;;;;;;;;;;;15.70;90.40;;;;;;4300225;33;43628;-84
2021/07/02 00:05:57;;;;;;;;;;;15.70;90.40;;;;;;4300859;33;39422;-83
2021/07/02 00:08:28;;;;;;;;;;;15.70;90.40;;;;;;4301843;33;20367;-83
2021/07/02 00:10:55;;;;;;;;;;;15.80;90.40;;;;;;4300718;33;38015;-83
2021/07/02 00:13:22;;;;;;;;;;;15.70;90.30;;;;;;4301809;33;38121;-84
2021/07/02 00:15:49;;;;;;;;;;;15.70;90.30;;;;;;4300915;33;44457;-83
2021/07/02 00:18:17;;;;;;;;;;;15.70;90.30;;;;;;4300689;33;41807;-83
2021/07/02 00:20:44;;;;;;;;;;;15.70;90.30;;;;;;4300483;33;41105;-83
2021/07/02 00:23:11;;;;;;;;;;;15.60;90.40;;;;;;4301647;33;20013;-83
2021/07/02 00:25:38;;;;;;;;;;;15.60;90.40;;;;;;4300470;33;43256;-83
2021/07/02 00:28:06;;;;;;;;;;;15.60;90.40;;;;;;4288365;33;32468;-84
2021/07/02 00:30:34;;;;;;;;;;;15.60;90.40;;;;;;4301376;33;20013;-83
2021/07/02 00:33:01;;;;;;;;;;;15.60;90.40;;;;;;4300931;33;20010;-83
2021/07/02 00:35:28;;;;;;;;;;;15.60;90.40;;;;;;4300544;33;25538;-84
2021/07/02 00:37:56;;;;;;;;;;;15.60;90.30;;;;;;4288801;33;23545;-83
2021/07/02 00:40:23;;;;;;;;;;;15.60;90.30;;;;;;4300938;33;20022;-84
2021/07/02 00:42:50;;;;;;;;;;;15.60;90.30;;;;;;4300842;33;20412;-83
2021/07/02 00:45:17;;;;;;;;;;;15.60;90.30;;;;;;4301261;33;20305;-83
2021/07/02 00:47:44;;;;;;;;;;;15.60;90.20;;;;;;4301781;33;20014;-83
2021/07/02 00:50:12;;;;;;;;;;;15.60;90.20;;;;;;4302355;33;20006;-83
2021/07/02 00:52:39;;;;;;;;;;;15.60;90.20;;;;;;4288973;33;20101;-83
2021/07/02 00:55:07;;;;;;;;;;;15.60;90.20;;;;;;4301985;33;22854;-82
2021/07/02 00:57:36;;;;;;;;;;;15.60;90.20;;;;;;4301996;33;20511;-83
2021/07/02 01:00:07;;;;;;;;;;;15.60;90.20;;;;;;4302188;33;20044;-83
2021/07/02 01:02:34;;;;;;;;;;;15.60;90.30;;;;;;4303122;33;20445;-82
2021/07/02 01:05:02;;;;;;;;;;;15.50;90.20;;;;;;4291967;33;20037;-82
2021/07/02 01:07:30;;;;;;;;;;;15.50;90.30;;;;;;4303576;33;20520;-83
2021/07/02 01:09:57;;;;;;;;;;;15.50;90.30;;;;;;4303899;33;20006;-83
2021/07/02 01:12:25;;;;;;;;;;;15.50;90.40;;;;;;4305198;33;20016;-83
2021/07/02 01:14:53;;;;;;;;;;;15.50;90.40;;;;;;4304820;33;20100;-83
2021/07/02 01:17:20;;;;;;;;;;;15.50;90.40;;;;;;4303587;33;20061;-83
2021/07/02 01:19:49;;;;;;;;;;;15.50;90.40;;;;;;4303514;33;19998;-81
2021/07/02 01:22:20;;;;;;;;;;;15.50;90.40;;;;;;4304064;33;20006;-83
2021/07/02 01:24:48;;;;;;;;;;;15.40;90.40;;;;;;4303711;33;20132;-82
2021/07/02 01:27:15;;;;;;;;;;;15.40;90.40;;;;;;4303610;33;20017;-82
2021/07/02 01:29:43;;;;;;;;;;;15.40;90.40;;;;;;4291353;33;20007;-82
2021/07/02 01:32:11;;;;;;;;;;;15.40;90.50;;;;;;4304601;33;20077;-83
2021/07/02 01:34:39;;;;;;;;;;;15.30;90.50;;;;;;4291373;33;20014;-83
2021/07/02 01:37:08;;;;;;;;;;;15.30;90.50;;;;;;4291065;33;21213;-81
2021/07/02 01:39:37;;;;;;;;;;;15.40;90.50;;;;;;4303178;33;20003;-82
2021/07/02 01:42:05;;;;;;;;;;;15.30;90.50;;;;;;4303121;33;20018;-82
2021/07/02 01:44:32;;;;;;;;;;;15.30;90.50;;;;;;4291000;33;20002;-81
2021/07/02 01:46:59;;;;;;;;;;;15.30;90.50;;;;;;4302828;33;20105;-81
2021/07/02 01:49:27;;;;;;;;;;;15.30;90.60;;;;;;4303237;33;20431;-82
2021/07/02 01:51:54;;;;;;;;;;;15.30;90.60;;;;;;4291446;33;20004;-83
2021/07/02 01:54:21;;;;;;;;;;;15.20;90.60;;;;;;4302843;33;20013;-82
2021/07/02 01:56:49;;;;;;;;;;;15.20;90.60;;;;;;4302649;33;20018;-83
2021/07/02 01:59:16;;;;;;;;;;;15.20;90.70;;;;;;4303058;33;20006;-83
2021/07/02 02:01:44;;;;;;;;;;;15.20;90.70;;;;;;4302847;33;21112;-81
2021/07/02 02:04:11;;;;;;;;;;;15.20;90.70;;;;;;4302404;33;23583;-82
2021/07/02 02:06:39;;;;;;;;;;;15.20;90.70;;;;;;4302372;33;22498;-84
2021/07/02 02:09:06;;;;;;;;;;;15.20;90.70;;;;;;4303161;33;20014;-84
2021/07/02 02:11:34;;;;;;;;;;;15.20;90.70;;;;;;4302739;33;20384;-82
2021/07/02 02:14:01;;;;;;;;;;;15.20;90.60;;;;;;4290480;33;20364;-83
2021/07/02 02:16:29;;;;;;;;;;;15.20;90.70;;;;;;4303952;33;20010;-83
2021/07/02 02:18:56;;;;;;;;;;;15.20;90.70;;;;;;4290773;33;20006;-82
2021/07/02 02:21:23;;;;;;;;;;;15.20;90.70;;;;;;4290674;33;23087;-81
2021/07/02 02:23:50;;;;;;;;;;;15.20;90.70;;;;;;4290237;33;20471;-82
2021/07/02 02:26:18;;;;;;;;;;;15.20;90.70;;;;;;4302332;33;24423;-82
2021/07/02 02:28:45;;;;;;;;;;;15.10;90.70;;;;;;4290109;33;23959;-81
2021/07/02 02:31:12;;;;;;;;;;;15.10;90.70;;;;;;4303371;33;20022;-82
2021/07/02 02:33:39;;;;;;;;;;;15.10;90.70;;;;;;4302058;33;23242;-82
2021/07/02 02:36:07;;;;;;;;;;;15.10;90.80;;;;;;4302267;33;20985;-81
2021/07/02 02:38:34;;;;;;;;;;;15.10;90.80;;;;;;4290459;33;20449;-81
2021/07/02 02:41:01;;;;;;;;;;;15.00;90.80;;;;;;4302448;33;20089;-80
2021/07/02 02:43:28;;;;;;;;;;;15.00;90.80;;;;;;4302734;33;20014;-81
2021/07/02 02:45:55;;;;;;;;;;;15.00;90.90;;;;;;4303380;33;21034;-80
2021/07/02 02:48:24;;;;;;;;;;;15.00;90.90;;;;;;4302092;33;44768;-80
2021/07/02 02:50:51;;;;;;;;;;;15.00;90.90;;;;;;4301526;33;43261;-82
2021/07/02 02:53:18;;;;;;;;;;;15.00;90.90;;;;;;4301585;33;44630;-82
2021/07/02 02:55:45;;;;;;;;;;;14.90;91.00;;;;;;4301529;33;45003;-82
2021/07/02 02:58:12;;;;;;;;;;;14.90;91.00;;;;;;4302168;33;44473;-83
2021/07/02 03:00:40;;;;;;;;;;;14.90;91.00;;;;;;4301953;33;45054;-82
2021/07/02 03:03:07;;;;;;;;;;;14.90;91.00;;;;;;4314093;33;40432;-80
2021/07/02 03:05:34;;;;;;;;;;;14.90;91.00;;;;;;4317818;33;20001;-82
2021/07/02 03:08:02;;;;;;;;;;;14.90;91.00;;;;;;4303525;33;43929;-82
2021/07/02 03:10:29;;;;;;;;;;;14.90;91.00;;;;;;4317095;33;43812;-81
2021/07/02 03:12:57;;;;;;;;;;;14.90;91.10;;;;;;4291604;33;45116;-81
2021/07/02 03:15:25;;;;;;;;;;;14.90;91.10;;;;;;4317060;33;43164;-80
2021/07/02 03:17:52;;;;;;;;;;;14.80;91.10;;;;;;4303123;33;44619;-80
2021/07/02 03:20:20;;;;;;;;;;;14.80;91.10;;;;;;4291374;33;43640;-82
2021/07/02 03:22:47;;;;;;;;;;;14.80;91.20;;;;;;4303531;33;43352;-82
2021/07/02 03:25:14;;;;;;;;;;;14.80;91.20;;;;;;4291109;33;45021;-82
2021/07/02 03:27:41;;;;;;;;;;;14.80;91.20;;;;;;4303570;33;42600;-83
2021/07/02 03:30:12;;;;;;;;;;;14.80;91.20;;;;;;4291331;33;45812;-82
2021/07/02 03:32:40;;;;;;;;;;;14.80;91.20;;;;;;4316869;33;38897;-82
2021/07/02 03:35:08;;;;;;;;;;;14.80;91.20;;;;;;4304629;33;20057;-82
2021/07/02 03:37:35;;;;;;;;;;;14.80;91.20;;;;;;4316081;33;44240;-82
2021/07/02 03:40:10;;;;;;;;;;;14.90;91.20;;;;;;4291312;33;41709;-83
2021/07/02 03:42:37;;;;;;;;;;;14.80;91.20;;;;;;4303644;33;45080;-82
2021/07/02 03:45:05;;;;;;;;;;;14.80;91.20;;;;;;4292612;33;20362;-82
2021/07/02 03:47:33;;;;;;;;;;;14.90;91.20;;;;;;4302953;33;41980;-81
2021/07/02 03:50:00;;;;;;;;;;;14.80;91.20;;;;;;4303505;33;44772;-82
2021/07/02 03:52:28;;;;;;;;;;;14.80;91.20;;;;;;4303522;33;43923;-82
2021/07/02 03:54:56;;;;;;;;;;;14.80;91.20;;;;;;4303011;33;45420;-82
2021/07/02 03:57:23;;;;;;;;;;;14.80;91.20;;;;;;4303651;33;20009;-81
2021/07/02 03:59:51;;;;;;;;;;;14.80;91.20;;;;;;4304289;33;20028;-82
2021/07/02 04:02:18;;;;;;;;;;;14.80;91.20;;;;;;4303415;33;20013;-82
2021/07/02 04:04:46;;;;;;;;;;;14.80;91.20;;;;;;4291927;33;20403;-81
2021/07/02 04:07:13;;;;;;;;;;;14.80;91.20;;;;;;4316894;33;21573;-82
2021/07/02 04:09:40;;;;;;;;;;;14.80;91.20;;;;;;4316660;33;20020;-82
2021/07/02 04:12:08;;;;;;;;;;;14.80;91.20;;;;;;4317223;33;20020;-82
2021/07/02 04:14:35;;;;;;;;;;;14.80;91.20;;;;;;4291569;33;19998;-82
2021/07/02 04:17:03;;;;;;;;;;;14.80;91.20;;;;;;4303752;33;20088;-81
2021/07/02 04:19:30;;;;;;;;;;;14.80;91.20;;;;;;4291880;33;20006;-82
2021/07/02 04:21:57;;;;;;;;;;;14.80;91.20;;;;;;4316454;33;20006;-81
2021/07/02 04:24:27;;;;;;;;;;;14.80;91.20;;;;;;4303232;33;20005;-81
2021/07/02 04:27:14;;;;;;;;;;;14.80;91.20;;;;;;4306112;33;20043;-81
2021/07/02 04:29:44;;;;;;;;;;;14.80;91.20;;;;;;4317193;33;20005;-81
2021/07/02 04:32:12;;;;;;;;;;;14.80;91.20;;;;;;4303995;33;20021;-81
2021/07/02 04:34:40;;;;;;;;;;;14.80;91.20;;;;;;4303998;33;20002;-81
2021/07/02 04:37:07;;;;;;;;;;;14.80;91.20;;;;;;4305045;33;20060;-81
2021/07/02 04:39:35;;;;;;;;;;;14.80;91.30;;;;;;4306300;33;21928;-81
2021/07/02 04:42:03;;;;;;;;;;;14.70;91.20;;;;;;4320030;33;20469;-81
2021/07/02 04:44:30;;;;;;;;;;;14.80;91.30;;;;;;4306539;33;23829;-81
2021/07/02 04:46:58;;;;;;;;;;;14.80;91.30;;;;;;4307127;33;20400;-82
2021/07/02 04:49:25;;;;;;;;;;;14.80;91.30;;;;;;4305913;33;22941;-81
2021/07/02 04:51:52;;;;;;;;;;;14.80;91.30;;;;;;4319821;33;20021;-81
2021/07/02 04:54:19;;;;;;;;;;;14.80;91.30;;;;;;4306573;33;20052;-81
2021/07/02 04:56:47;;;;;;;;;;;14.80;91.30;;;;;;4319270;33;21234;-81
2021/07/02 04:59:16;;;;;;;;;;;14.80;91.30;;;;;;4306319;33;20453;-81
2021/07/02 05:01:43;;;;;;;;;;;14.80;91.30;;;;;;4305683;33;20017;-81
2021/07/02 05:04:10;;;;;;;;;;;14.80;91.30;;;;;;4306513;33;21787;-81
2021/07/02 05:06:38;;;;;;;;;;;14.80;91.30;;;;;;4306479;33;20009;-81
2021/07/02 05:09:06;;;;;;;;;;;14.70;91.30;;;;;;4293922;33;24472;-81
2021/07/02 05:11:34;;;;;;;;;;;14.80;91.40;;;;;;4306280;33;20068;-81
2021/07/02 05:14:05;;;;;;;;;;;14.80;91.40;;;;;;4319330;33;20017;-81
2021/07/02 05:16:32;;;;;;;;;;;14.80;91.40;;;;;;4293967;33;20049;-81
2021/07/02 05:18:59;;;;;;;;;;;14.70;91.40;;;;;;4306479;33;20032;-80
2021/07/02 05:21:26;;;;;;;;;;;14.70;91.40;;;;;;4293703;33;20037;-81
2021/07/02 05:23:56;;;;;;;;;;;14.70;91.40;;;;;;4319484;33;20045;-81
2021/07/02 05:26:23;;;;;;;;;;;14.80;91.50;;;;;;4293194;33;43848;-82
2021/07/02 05:28:50;;;;;;;;;;;14.80;91.50;;;;;;4318365;33;43538;-80
2021/07/02 05:31:17;;;;;;;;;;;14.70;91.50;;;;;;4305245;33;44690;-81
2021/07/02 05:33:45;;;;;;;;;;;14.70;91.50;;;;;;4304742;33;43502;-80
2021/07/02 05:36:12;;;;;;;;;;;14.70;91.50;;;;;;4292622;33;44863;-81
2021/07/02 05:38:39;;;;;;;;;;;14.70;91.50;;;;;;4292868;33;44530;-82
2021/07/02 05:41:06;;;;;;;;;;;14.70;91.50;;;;;;4292408;33;43227;-81
2021/07/02 05:43:33;;;;;;;;;;;14.70;91.50;;;;;;4292893;33;43497;-80
2021/07/02 05:46:00;;;;;;;;;;;14.70;91.50;;;;;;4305013;33;44491;-81
2021/07/02 05:48:29;;;;;;;;;;;14.70;91.60;;;;;;4303557;33;43398;-80
2021/07/02 05:50:56;;;;;;;;;;;14.70;91.60;;;;;;4318232;33;43797;-80
2021/07/02 05:53:23;;;;;;;;;;;14.70;91.60;;;;;;4304510;33;43427;-80
2021/07/02 05:55:51;;;;;;;;;;;14.70;91.60;;;;;;4304888;33;42282;-81
2021/07/02 05:58:20;;;;;;;;;;;14.70;91.60;;;;;;4293830;33;20084;-80
2021/07/02 06:00:47;;;;;;;;;;;14.70;91.60;;;;;;4304288;33;43886;-79
2021/07/02 06:03:14;;;;;;;;;;;14.70;91.60;;;;;;4317473;33;44596;-79
2021/07/02 06:05:42;;;;;;;;;;;14.70;91.60;;;;;;4317785;33;41476;-80
2021/07/02 06:08:09;;;;;;;;;;;14.70;91.70;;;;;;4318139;33;35751;-81
2021/07/02 06:10:36;;;;;;;;;;;14.70;91.70;;;;;;4317377;33;41220;-81
2021/07/02 06:13:03;;;;;;;;;;;14.80;91.70;;;;;;4304711;33;44602;-79
2021/07/02 06:15:32;;;;;;;;;;;14.70;91.70;;;;;;4304400;33;42989;-80
2021/07/02 06:18:07;;;;;;;;;;;14.80;91.70;;;;;;4292960;33;43776;-81
2021/07/02 06:20:34;;;;;;;;;;;14.80;91.70;;;;;;4304740;33;36482;-80
2021/07/02 06:23:02;;;;;;;;;;;14.80;91.70;;;;;;4305004;33;31628;-80
2021/07/02 06:25:29;;;;;;;;;;;14.80;91.70;;;;;;4304040;33;44123;-81
2021/07/02 06:27:56;;;;;;;;;;;14.80;91.70;;;;;;4317656;33;40954;-80
2021/07/02 06:30:23;;;;;;;;;;;14.90;91.70;;;;;;4317492;33;44506;-81
2021/07/02 06:32:50;;;;;;;;;;;14.90;91.70;;;;;;4292157;33;44009;-81
2021/07/02 06:35:18;;;;;;;;;;;14.90;91.70;;;;;;4304502;33;43104;-79
2021/07/02 06:37:49;;;;;;;;;;;14.90;91.70;;;;;;4319181;33;40422;-81
2021/07/02 06:40:18;;;;;;;;;;;14.90;91.70;;;;;;4306429;33;44650;-81
2021/07/02 06:42:45;;;;;;;;;;;14.90;91.70;;;;;;4318823;33;29227;-80
2021/07/02 06:45:13;;;;;;;;;;;14.90;91.70;;;;;;4331900;33;42839;-81
2021/07/02 06:47:53;;;;;;;;;;;14.90;91.70;;;;;;4319171;33;20715;-80
2021/07/02 06:50:20;;;;;;;;;;;15.00;91.70;;;;;;4319534;33;20044;-81
2021/07/02 06:52:47;;;;;;;;;;;15.00;91.70;;;;;;4318985;33;20013;-81
2021/07/02 06:55:18;;;;;;;;;;;15.00;91.70;;;;;;4306993;33;20022;-81
2021/07/02 06:57:45;;;;;;;;;;;15.00;91.70;;;;;;4329941;33;20056;-81
2021/07/02 07:00:17;;;;;;;;;;;15.00;91.70;;;;;;4317128;33;20243;-80
2021/07/02 07:02:44;;;;;;;;;;;15.00;91.70;;;;;;4315847;33;20081;-80
2021/07/02 07:05:13;;;;;;;;;;;15.00;91.70;;;;;;4317000;33;20026;-79
2021/07/02 07:07:41;;;;;;;;;;;15.00;91.70;;;;;;4317949;33;20407;-80
2021/07/02 07:10:13;;;;;;;;;;;15.00;91.70;;;;;;4317918;33;20024;-81
2021/07/02 07:12:40;;;;;;;;;;;15.00;91.70;;;;;;4317195;33;20043;-81
2021/07/02 07:15:09;;;;;;;;;;;15.00;91.70;;;;;;4316095;33;20380;-79
2021/07/02 07:17:36;;;;;;;;;;;15.10;91.70;;;;;;4317588;33;20027;-80
2021/07/02 07:20:04;;;;;;;;;;;15.10;91.70;;;;;;4316855;33;20206;-80
2021/07/02 07:22:32;;;;;;;;;;;15.10;91.70;;;;;;4315889;33;20021;-79
2021/07/02 07:24:59;;;;;;;;;;;15.10;91.70;;;;;;4316284;33;20025;-80
2021/07/02 07:27:27;;;;;;;;;;;15.10;91.70;;;;;;4316384;33;20415;-81
2021/07/02 07:29:54;;;;;;;;;;;15.20;91.70;;;;;;4316339;33;20072;-80
2021/07/02 07:32:21;;;;;;;;;;;15.20;91.70;;;;;;4316008;33;20032;-83
2021/07/02 07:34:53;;;;;;;;;;;15.20;91.80;;;;;;4316375;33;20010;-80
2021/07/02 07:37:22;;;;;;;;;;;15.30;91.70;;;;;;4317654;33;20009;-82
2021/07/02 07:39:51;;;;;;;;;;;15.30;91.70;;;;;;4318015;33;20044;-80
2021/07/02 07:42:19;;;;;;;;;;;15.30;91.70;;;;;;4316608;33;20009;-80
2021/07/02 07:44:46;;;;;;;;;;;15.30;91.70;;;;;;4304421;33;20010;-81
2021/07/02 07:47:13;;;;;;;;;;;15.30;91.70;;;;;;4315803;33;20017;-80
2021/07/02 07:49:43;;;;;;;;;;;15.30;91.70;;;;;;4315811;33;20396;-80
2021/07/02 07:52:16;;;;;;;;;;;15.40;91.70;;;;;;4315791;33;20743;-80
2021/07/02 07:54:43;;;;;;;;;;;15.40;91.70;;;;;;4317728;33;20445;-81
2021/07/02 07:57:10;;;;;;;;;;;15.40;91.70;;;;;;4316208;33;20013;-81
2021/07/02 07:59:37;;;;;;;;;;;15.40;92.00;;;;;;4304013;33;19994;-81
2021/07/02 08:02:05;;;;;;;;;;;15.50;91.70;;;;;;4316366;33;20014;-80
2021/07/02 08:04:32;;;;;;;;;;;15.50;91.70;;;;;;4304084;33;20006;-82
2021/07/02 08:06:59;;;;;;;;;;;15.50;91.70;;;;;;4304028;33;20009;-81
2021/07/02 08:09:30;;;;;;;;;;;15.50;91.70;;;;;;4316434;33;20017;-80
2021/07/02 08:11:57;;;;;;;;;;;15.50;91.70;;;;;;4316938;33;20010;-80
2021/07/02 08:14:25;;;;;;;;;;;15.50;91.70;;;;;;4316469;33;20010;-80
2021/07/02 08:16:52;;;;;;;;;;;15.60;91.70;;;;;;4317345;33;20415;-80
2021/07/02 08:19:19;;;;;;;;;;;15.60;91.70;;;;;;4316603;33;20022;-80
2021/07/02 08:21:46;;;;;;;;;;;15.60;91.70;;;;;;4315412;33;20025;-80
2021/07/02 08:24:14;;;;;;;;;;;15.60;91.70;;;;;;4315598;33;20551;-81
2021/07/02 08:26:42;;;;;;;;;;;15.60;91.70;;;;;;4317341;33;20026;-81
2021/07/02 08:29:28;;;;;;;;;;;15.60;91.70;;;;;;4315286;33;20399;-80
2021/07/02 08:31:56;;;;;;;;;;;15.70;91.80;;;;;;4302817;33;44905;-80
2021/07/02 08:34:23;;;;;;;;;;;15.70;91.70;;;;;;4316107;33;44344;-80
2021/07/02 08:36:50;;;;;;;;;;;15.70;91.70;;;;;;4316227;33;37484;-80
2021/07/02 08:39:18;;;;;;;;;;;15.70;91.70;;;;;;4315104;33;38007;-80
2021/07/02 08:41:45;;;;;;;;;;;15.70;91.70;;;;;;4316427;33;20028;-81
2021/07/02 08:44:13;;;;;;;;;;;15.70;91.70;;;;;;4314969;33;44466;-80
2021/07/02 08:46:42;;;;;;;;;;;15.70;91.80;;;;;;4315281;33;36294;-80
2021/07/02 08:49:27;;;;;;;;;;;15.80;91.80;;;;;;4305265;33;20494;-79
2021/07/02 08:51:54;;;;;;;;;;;15.80;91.80;;;;;;4315099;33;34044;-81
2021/07/02 08:54:21;;;;;;;;;;;15.80;91.80;;;;;;4315392;33;38921;-80
2021/07/02 08:56:58;;;;;;;;;;;15.80;91.80;;;;;;4302719;33;41574;-81
2021/07/02 08:59:26;;;;;;;;;;;15.80;91.70;;;;;;4315125;33;39637;-81
2021/07/02 09:01:54;;;;;;;;;;;15.90;91.80;;;;;;4320196;33;42730;-81
2021/07/02 09:04:24;;;;;;;;;;;15.90;91.80;;;;;;4330464;33;43481;-81
2021/07/02 09:07:07;;;;;;;;;;;15.90;91.80;;;;;;4330005;33;42641;-81
2021/07/02 09:09:56;;;;;;;;;;;15.90;91.80;;;;;;4305874;33;20099;-81
2021/07/02 09:12:27;;;;;;;;;;;15.90;92.20;;;;;;4306500;33;20002;-80
2021/07/02 09:14:56;;;;;;;;;;;15.90;91.80;;;;;;4317799;33;20076;-81
2021/07/02 09:17:25;;;;;;;;;;;16.00;91.80;;;;;;4317858;33;20002;-80
2021/07/02 09:20:03;;;;;;;;;;;16.00;91.80;;;;;;4317486;33;38775;-81
2021/07/02 09:22:38;;;;;;;;;;;16.00;91.80;;;;;;4319111;33;20043;-81
2021/07/02 09:25:10;;;;;;;;;;;16.00;91.80;;;;;;4334319;33;20436;-82
2021/07/02 09:27:41;;;;;;;;;;;16.00;91.80;;;;;;4320436;33;20012;-81
2021/07/02 09:30:15;;;;;;;;;;;16.00;91.80;;;;;;4320872;33;19993;-81
2021/07/02 09:33:02;;;;;;;;;;;16.00;91.90;;;;;;4308544;33;19997;-81
2021/07/02 09:35:35;;;;;;;;;;;16.10;91.90;;;;;;4321312;33;20015;-81
2021/07/02 09:38:03;;;;;;;;;;;16.10;91.90;;;;;;4332787;33;38881;-81
2021/07/02 09:40:37;;;;;;;;;;;16.10;91.90;;;;;;4320236;33;20415;-81
2021/07/02 09:43:10;;;;;;;;;;;16.20;91.90;;;;;;4308593;33;20482;-81
2021/07/02 09:45:50;;;;;;;;;;;16.20;92.10;;;;;;4320607;33;20016;-83
2021/07/02 09:48:23;;;;;;;;;;;16.20;92.00;;;;;;4307099;33;38176;-82
2021/07/02 09:51:01;;;;;;;;;;;16.20;92.00;;;;;;4308573;33;19998;-82
2021/07/02 09:53:35;;;;;;;;;;;16.30;92.00;;;;;;4320065;33;30213;-81
2021/07/02 09:56:04;;;;;;;;;;;16.30;92.00;;;;;;4333589;33;20019;-81
2021/07/02 09:58:36;;;;;;;;;;;16.30;92.00;;;;;;4307071;33;32065;-82
2021/07/02 10:01:05;;;;;;;;;;;16.30;91.90;;;;;;4307498;33;20017;-83
2021/07/02 10:03:34;;;;;;;;;;;16.30;91.90;;;;;;4306853;33;33438;-81
2021/07/02 10:06:04;;;;;;;;;;;16.40;92.00;;;;;;4307938;33;20009;-81
2021/07/02 10:08:34;;;;;;;;;;;16.40;92.00;;;;;;4319851;33;20009;-81
2021/07/02 10:11:03;;;;;;;;;;;16.30;91.90;;;;;;4318833;33;38892;-82
2021/07/02 10:13:32;;;;;;;;;;;16.40;92.00;;;;;;4332800;33;31301;-82
2021/07/02 10:16:00;;;;;;;;;;;16.40;92.00;;;;;;4333319;33;20021;-80
2021/07/02 10:18:29;;;;;;;;;;;16.40;92.00;;;;;;4333367;33;20052;-82
2021/07/02 10:20:58;;;;;;;;;;;16.40;92.10;;;;;;4333101;33;20020;-82
2021/07/02 10:23:32;;;;;;;;;;;16.40;92.00;;;;;;4320044;33;20084;-82
2021/07/02 10:26:03;;;;;;;;;;;16.50;92.10;;;;;;4320231;33;20015;-82
2021/07/02 10:28:31;;;;;;;;;;;16.50;92.10;;;;;;4319369;33;33445;-82
2021/07/02 10:30:59;;;;;;;;;;;16.50;92.00;;;;;;4306813;33;36903;-82
2021/07/02 10:33:27;;;;;;;;;;;16.50;92.00;;;;;;4318760;33;32736;-82
2021/07/02 10:35:58;;;;;;;;;;;16.50;92.00;;;;;;4307045;33;20395;-82
2021/07/02 10:38:38;;;;;;;;;;;16.60;92.10;;;;;;4318266;33;46987;-82
2021/07/02 10:41:13;;;;;;;;;;;16.60;92.00;;;;;;4331518;33;42724;-81
2021/07/02 10:44:05;;;;;;;;;;;16.60;92.10;;;;;;4320025;33;20374;-81
2021/07/02 10:46:34;;;;;;;;;;;16.60;92.00;;;;;;4331478;33;41952;-82
2021/07/02 10:49:03;;;;;;;;;;;16.60;92.10;;;;;;4331970;33;42481;-82
2021/07/02 10:51:30;;;;;;;;;;;16.70;92.10;;;;;;4318612;33;35774;-82
2021/07/02 10:54:13;;;;;;;;;;;16.70;92.10;;;;;;4319511;33;20340;-82
2021/07/02 10:56:44;;;;;;;;;;;16.70;92.10;;;;;;4306434;33;44890;-82
2021/07/02 10:59:14;;;;;;;;;;;16.70;92.10;;;;;;4318460;33;43471;-80
2021/07/02 11:02:00;;;;;;;;;;;16.70;92.00;;;;;;4331350;33;30838;-81
2021/07/02 11:04:39;;;;;;;;;;;16.80;92.10;;;;;;4331671;33;35280;-83
2021/07/02 11:07:12;;;;;;;;;;;16.80;92.10;;;;;;4318539;33;40769;-82
2021/07/02 11:09:52;;;;;;;;;;;16.80;92.10;;;;;;4318485;33;41590;-83
2021/07/02 11:12:23;;;;;;;;;;;16.80;92.00;;;;;;4332959;33;20009;-80
2021/07/02 11:17:25;;;;;;;;;;;16.90;92.00;;;;;;4318875;33;20400;-82
2021/07/02 11:20:08;;;;;;;;;;;16.90;92.00;;;;;;4319138;33;20013;-82
2021/07/02 11:22:41;;;;;;;;;;;16.90;92.00;;;;;;4318831;33;20424;-82
2021/07/02 11:25:20;;;;;;;;;;;16.90;92.00;;;;;;4319129;33;20014;-81
2021/07/02 11:27:54;;;;;;;;;;;16.90;92.00;;;;;;4318659;33;20010;-82
2021/07/02 11:30:22;;;;;;;;;;;16.90;92.00;;;;;;4318857;33;20005;-82
2021/07/02 11:32:51;;;;;;;;;;;16.90;92.00;;;;;;4306339;33;20036;-82
2021/07/02 11:35:21;;;;;;;;;;;16.90;92.00;;;;;;4307196;33;19994;-82
2021/07/02 11:38:02;;;;;;;;;;;17.00;92.00;;;;;;4318904;33;20002;-81
2021/07/02 11:40:39;;;;;;;;;;;17.00;92.00;;;;;;4332219;33;20017;-81
2021/07/02 11:43:20;;;;;;;;;;;17.00;92.10;;;;;;4331955;33;20021;-82
2021/07/02 11:45:52;;;;;;;;;;;17.00;92.00;;;;;;4318065;33;21020;-82
2021/07/02 11:48:19;;;;;;;;;;;17.00;92.00;;;;;;4319048;33;20402;-81
2021/07/02 11:50:47;;;;;;;;;;;17.00;92.00;;;;;;4319257;33;20087;-81
2021/07/02 11:53:30;;;;;;;;;;;17.00;92.00;;;;;;4318487;33;20013;-82
2021/07/02 11:56:01;;;;;;;;;;;17.00;92.00;;;;;;4318111;33;19998;-82
2021/07/02 11:58:31;;;;;;;;;;;17.00;92.00;;;;;;4319166;33;20023;-82
2021/07/02 12:01:00;;;;;;;;;;;17.00;92.10;;;;;;4318782;33;20005;-82
2021/07/02 12:03:27;;;;;;;;;;;17.00;92.10;;;;;;4318325;33;20009;-82
2021/07/02 12:05:56;;;;;;;;;;;17.10;92.10;;;;;;4317775;33;20176;-81
2021/07/02 12:08:24;;;;;;;;;;;17.10;92.10;;;;;;4331543;33;22082;-82
2021/07/02 12:11:02;;;;;;;;;;;17.10;92.10;;;;;;4306388;33;20015;-82
2021/07/02 12:13:32;;;;;;;;;;;17.20;92.10;;;;;;4318369;33;20025;-81
2021/07/02 12:16:06;;;;;;;;;;;17.20;92.20;;;;;;4318014;33;20692;-82
2021/07/02 12:18:37;;;;;;;;;;;17.20;92.10;;;;;;4306929;33;20063;-83
2021/07/02 12:21:10;;;;;;;;;;;17.30;92.20;;;;;;4318302;33;20023;-81
2021/07/02 12:23:45;;;;;;;;;;;17.30;92.20;;;;;;4318864;33;20374;-81
2021/07/02 12:26:25;;;;;;;;;;;17.40;92.10;;;;;;4318487;33;20013;-81
2021/07/02 12:28:54;;;;;;;;;;;17.40;92.10;;;;;;4318540;33;20386;-81
2021/07/02 12:31:27;;;;;;;;;;;17.50;92.10;;;;;;4306341;33;20005;-81
2021/07/02 12:34:01;;;;;;;;;;;17.50;92.00;;;;;;4318415;33;20000;-81
2021/07/02 12:36:31;;;;;;;;;;;17.50;92.00;;;;;;4305855;33;20009;-81
2021/07/02 12:38:58;;;;;;;;;;;17.50;92.00;;;;;;4331653;33;20017;-81
2021/07/02 12:41:33;;;;;;;;;;;17.60;92.00;;;;;;4331455;33;20073;-81
2021/07/02 12:44:01;;;;;;;;;;;17.60;92.00;;;;;;4306650;33;20435;-81
2021/07/02 12:46:28;;;;;;;;;;;17.60;91.90;;;;;;4318581;33;20023;-80
2021/07/02 12:49:15;;;;;;;;;;;17.60;92.00;;;;;;4318565;33;20023;-80
2021/07/02 12:54:59;;;;;;;;;;;17.70;92.00;;;;;;4317560;33;20009;-81
2021/07/02 12:57:31;;;;;;;;;;;17.70;92.00;;;;;;4318236;33;20546;-81
2021/07/02 13:00:00;;;;;;;;;;;17.80;92.00;;;;;;4309349;33;20020;-81
2021/07/02 13:02:32;;;;;;;;;;;17.80;92.00;;;;;;4320646;33;20075;-82
2021/07/02 13:05:00;;;;;;;;;;;17.80;92.00;;;;;;4308901;33;20077;-81
2021/07/02 13:07:46;;;;;;;;;;;17.90;92.00;;;;;;4334239;33;20005;-81
2021/07/02 13:10:14;;;;;;;;;;;17.90;92.00;;;;;;4321288;33;20072;-81
2021/07/02 13:12:42;;;;;;;;;;;18.00;92.00;;;;;;4334320;33;20024;-81
2021/07/02 13:15:15;;;;;;;;;;;18.00;91.90;;;;;;4321338;33;20009;-82
2021/07/02 13:17:46;;;;;;;;;;;18.00;91.90;;;;;;4308863;33;19998;-80
2021/07/02 13:20:20;;;;;;;;;;;18.10;91.90;;;;;;4321606;33;20065;-81
2021/07/02 13:23:00;;;;;;;;;;;18.10;91.90;;;;;;4308554;33;20515;-81
2021/07/02 13:25:33;;;;;;;;;;;18.10;91.90;;;;;;4308793;33;20071;-82
2021/07/02 13:28:08;;;;;;;;;;;18.20;91.90;;;;;;4321260;33;20005;-80
2021/07/02 13:30:44;;;;;;;;;;;18.20;91.80;;;;;;4308561;33;20407;-82
2021/07/02 13:33:16;;;;;;;;;;;18.30;91.80;;;;;;4320484;33;19998;-81
2021/07/02 13:35:43;;;;;;;;;;;18.30;91.80;;;;;;4320317;33;20013;-79
2021/07/02 13:38:17;;;;;;;;;;;18.30;91.70;;;;;;4320506;33;20060;-82
2021/07/02 13:40:49;;;;;;;;;;;18.40;91.70;;;;;;4320776;33;20008;-81
2021/07/02 13:43:17;;;;;;;;;;;18.40;91.70;;;;;;4308304;33;20394;-81
2021/07/02 13:46:00;;;;;;;;;;;18.40;91.70;;;;;;4320227;33;20002;-80
2021/07/02 13:48:28;;;;;;;;;;;18.40;91.70;;;;;;4320796;33;20457;-81
2021/07/02 13:50:56;;;;;;;;;;;18.50;91.70;;;;;;4320579;33;19997;-80
2021/07/02 13:53:25;;;;;;;;;;;18.50;91.70;;;;;;4308584;33;20006;-80
2021/07/02 13:55:52;;;;;;;;;;;18.50;91.70;;;;;;4320541;33;20001;-80
2021/07/02 13:58:19;;;;;;;;;;;18.60;91.70;;;;;;4319691;33;20028;-81
2021/07/02 14:00:47;;;;;;;;;;;18.60;91.70;;;;;;4320459;33;20001;-81
2021/07/02 14:03:15;;;;;;;;;;;18.60;91.70;;;;;;4332934;33;20021;-81
2021/07/02 14:05:43;;;;;;;;;;;18.70;91.70;;;;;;4319839;33;20020;-80
2021/07/02 14:08:10;;;;;;;;;;;18.70;91.70;;;;;;4319335;33;20025;-80
2021/07/02 14:10:38;;;;;;;;;;;18.70;91.60;;;;;;4319475;33;20083;-80
2021/07/02 14:13:08;;;;;;;;;;;18.70;91.60;;;;;;4320223;33;20012;-80
2021/07/02 14:15:38;;;;;;;;;;;18.80;91.60;;;;;;4308465;33;20056;-82
2021/07/02 14:18:08;;;;;;;;;;;18.80;91.60;;;;;;4320172;33;20021;-81
2021/07/02 14:20:35;;;;;;;;;;;18.80;91.60;;;;;;4320467;33;20052;-81
2021/07/02 14:23:02;;;;;;;;;;;18.80;91.60;;;;;;4333021;33;20001;-81
2021/07/02 14:25:30;;;;;;;;;;;18.80;91.60;;;;;;4319808;33;20019;-80
2021/07/02 14:27:57;;;;;;;;;;;18.90;91.60;;;;;;4320283;33;20017;-80
2021/07/02 14:30:25;;;;;;;;;;;18.90;91.60;;;;;;4319555;33;20001;-81
2021/07/02 14:32:52;;;;;;;;;;;18.90;91.50;;;;;;4320129;33;20448;-81
2021/07/02 14:35:21;;;;;;;;;;;18.90;91.50;;;;;;4319793;33;20017;-81